sensor_id;sensor_type;location;lat;lon;timestamp;pressure;altitude;pressure_sealevel;temperature;humidity
47785;BME280;35233;55.686;37.848;2023-03-25T00:02:23;98588.09;;;21.51;39.72
47785;BME280;35233;55.686;37.848;2023-03-25T00:04:53;98586.41;;;21.50;39.65
47785;BME280;35233;55.686;37.848;2023-03-25T00:07:20;98579.47;;;21.47;39.55
47785;BME280;35233;55.686;37.848;2023-03-25T00:09:46;98574.22;;;21.46;39.99
47785;BME280;35233;55.686;37.848;2023-03-25T00:12:13;98584.69;;;21.49;39.90
47785;BME280;35233;55.686;37.848;2023-03-25T00:14:39;98593.47;;;21.51;39.39
47785;BME280;35233;55.686;37.848;2023-03-25T00:17:06;98582.72;;;21.51;39.55
47785;BME280;35233;55.686;37.848;2023-03-25T00:19:33;98580.16;;;21.40;39.40
47785;BME280;35233;55.686;37.848;2023-03-25T00:22:00;98590.22;;;21.47;39.37
47785;BME280;35233;55.686;37.848;2023-03-25T00:24:26;98583.13;;;21.46;39.85
47785;BME280;35233;55.686;37.848;2023-03-25T00:26:51;98586.38;;;21.40;39.55
47785;BME280;35233;55.686;37.848;2023-03-25T00:29:19;98595.59;;;21.47;39.34
47785;BME280;35233;55.686;37.848;2023-03-25T00:31:45;98585.97;;;21.45;39.51
47785;BME280;35233;55.686;37.848;2023-03-25T00:34:10;98579.59;;;21.46;39.84
47785;BME280;35233;55.686;37.848;2023-03-25T00:36:39;98560.88;;;21.35;39.46
47785;BME280;35233;55.686;37.848;2023-03-25T00:39:06;98571.69;;;21.44;40.00
47785;BME280;35233;55.686;37.848;2023-03-25T00:41:33;98558.66;;;21.40;39.37
47785;BME280;35233;55.686;37.848;2023-03-25T00:44:00;98547.19;;;21.38;39.38
47785;BME280;35233;55.686;37.848;2023-03-25T00:46:29;98550.59;;;21.40;39.54
47785;BME280;35233;55.686;37.848;2023-03-25T00:48:55;98553.84;;;21.43;39.55
47785;BME280;35233;55.686;37.848;2023-03-25T00:51:21;98564.59;;;21.43;39.12
47785;BME280;35233;55.686;37.848;2023-03-25T00:53:50;98554.13;;;21.40;39.28
47785;BME280;35233;55.686;37.848;2023-03-25T00:56:20;98557.53;;;21.42;39.70
47785;BME280;35233;55.686;37.848;2023-03-25T00:58:45;98531.59;;;21.32;39.51
47785;BME280;35233;55.686;37.848;2023-03-25T01:01:20;98546.91;;;21.41;39.31
47785;BME280;35233;55.686;37.848;2023-03-25T01:03:52;98527.66;;;21.36;39.66
47785;BME280;35233;55.686;37.848;2023-03-25T01:06:28;98529.25;;;21.38;39.27
47785;BME280;35233;55.686;37.848;2023-03-25T01:08:57;98530.34;;;21.36;39.55
47785;BME280;35233;55.686;37.848;2023-03-25T01:11:26;98533.03;;;21.36;39.23
47785;BME280;35233;55.686;37.848;2023-03-25T01:13:56;98532.06;;;21.37;39.31
47785;BME280;35233;55.686;37.848;2023-03-25T01:16:24;98516.03;;;21.25;39.43
47785;BME280;35233;55.686;37.848;2023-03-25T01:18:50;98525.25;;;21.33;39.36
47785;BME280;35233;55.686;37.848;2023-03-25T01:21:16;98507.84;;;21.27;39.31
47785;BME280;35233;55.686;37.848;2023-03-25T01:23:41;98509.97;;;21.33;39.13
47785;BME280;35233;55.686;37.848;2023-03-25T01:26:07;98508.41;;;21.31;39.68
47785;BME280;35233;55.686;37.848;2023-03-25T01:28:32;98499.22;;;21.23;39.32
47785;BME280;35233;55.686;37.848;2023-03-25T01:31:06;98501.63;;;21.27;39.41
47785;BME280;35233;55.686;37.848;2023-03-25T01:33:32;98486.78;;;21.22;39.04
47785;BME280;35233;55.686;37.848;2023-03-25T01:36:00;98502.03;;;21.32;39.00
47785;BME280;35233;55.686;37.848;2023-03-25T01:38:26;98501.38;;;21.30;39.00
47785;BME280;35233;55.686;37.848;2023-03-25T01:40:52;98498.66;;;21.30;39.56
47785;BME280;35233;55.686;37.848;2023-03-25T01:43:19;98487.94;;;21.30;39.03
47785;BME280;35233;55.686;37.848;2023-03-25T01:45:45;98496.00;;;21.30;39.04
47785;BME280;35233;55.686;37.848;2023-03-25T01:50:44;98492.16;;;21.22;39.43
47785;BME280;35233;55.686;37.848;2023-03-25T01:53:11;98496.13;;;21.28;38.91
47785;BME280;35233;55.686;37.848;2023-03-25T01:55:37;98495.28;;;21.28;39.06
47785;BME280;35233;55.686;37.848;2023-03-25T01:58:08;98475.91;;;21.24;38.99
47785;BME280;35233;55.686;37.848;2023-03-25T02:00:38;98472.09;;;21.27;39.44
47785;BME280;35233;55.686;37.848;2023-03-25T02:03:05;98472.09;;;21.27;38.94
47785;BME280;35233;55.686;37.848;2023-03-25T02:05:38;98473.78;;;21.28;38.81
47785;BME280;35233;55.686;37.848;2023-03-25T02:08:06;98457.66;;;21.18;39.37
47785;BME280;35233;55.686;37.848;2023-03-25T02:10:34;98466.72;;;21.27;38.82
47785;BME280;35233;55.686;37.848;2023-03-25T02:13:01;98443.78;;;21.22;39.15
47785;BME280;35233;55.686;37.848;2023-03-25T02:15:31;98447.19;;;21.24;38.73
47785;BME280;35233;55.686;37.848;2023-03-25T02:23:20;98448.19;;;21.23;39.19
47785;BME280;35233;55.686;37.848;2023-03-25T02:40:11;98445.75;;;21.20;39.00
47785;BME280;35233;55.686;37.848;2023-03-25T02:42:47;98446.63;;;21.21;39.02
47785;BME280;35233;55.686;37.848;2023-03-25T02:45:28;98423.03;;;21.15;39.01
47785;BME280;35233;55.686;37.848;2023-03-25T02:48:10;98428.13;;;21.18;38.88
47785;BME280;35233;55.686;37.848;2023-03-25T02:50:42;98412.13;;;21.16;38.95
47785;BME280;35233;55.686;37.848;2023-03-25T02:53:13;98409.72;;;21.13;38.84
47785;BME280;35233;55.686;37.848;2023-03-25T02:55:42;98409.44;;;21.16;38.67
47785;BME280;35233;55.686;37.848;2023-03-25T02:58:10;98402.41;;;21.15;38.87
47785;BME280;35233;55.686;37.848;2023-03-25T03:00:38;98395.03;;;21.17;39.04
47785;BME280;35233;55.686;37.848;2023-03-25T03:03:05;98390.66;;;21.16;38.95
47785;BME280;35233;55.686;37.848;2023-03-25T03:05:36;98391.38;;;21.18;38.81
47785;BME280;35233;55.686;37.848;2023-03-25T03:08:19;98379.78;;;21.18;38.59
47785;BME280;35233;55.686;37.848;2023-03-25T03:13:58;98379.78;;;21.18;38.48
47785;BME280;35233;55.686;37.848;2023-03-25T03:19:48;98368.88;;;21.19;38.49
47785;BME280;35233;55.686;37.848;2023-03-25T03:30:28;98343.88;;;21.09;38.80
47785;BME280;35233;55.686;37.848;2023-03-25T03:33:20;98332.97;;;21.11;38.44
47785;BME280;35233;55.686;37.848;2023-03-25T03:35:59;98342.03;;;21.19;38.87
47785;BME280;35233;55.686;37.848;2023-03-25T03:38:34;98340.34;;;21.18;38.80
47785;BME280;35233;55.686;37.848;2023-03-25T03:41:09;98306.41;;;21.08;38.43
47785;BME280;35233;55.686;37.848;2023-03-25T03:43:51;98327.75;;;21.19;38.90
47785;BME280;35233;55.686;37.848;2023-03-25T03:46:22;98316.16;;;21.18;38.90
47785;BME280;35233;55.686;37.848;2023-03-25T03:48:54;98324.22;;;21.18;38.29
47785;BME280;35233;55.686;37.848;2023-03-25T03:51:40;98321.53;;;21.18;38.90
47785;BME280;35233;55.686;37.848;2023-03-25T03:54:15;98306.97;;;21.21;38.62
47785;BME280;35233;55.686;37.848;2023-03-25T03:56:46;98296.91;;;21.23;38.25
47785;BME280;35233;55.686;37.848;2023-03-25T04:02:03;98292.53;;;21.22;38.31
47785;BME280;35233;55.686;37.848;2023-03-25T04:04:31;98286.34;;;21.21;38.27
47785;BME280;35233;55.686;37.848;2023-03-25T04:07:02;98290.88;;;21.21;38.76
47785;BME280;35233;55.686;37.848;2023-03-25T04:09:37;98272.66;;;21.15;38.72
47785;BME280;35233;55.686;37.848;2023-03-25T04:12:14;98274.16;;;21.17;38.48
47785;BME280;35233;55.686;37.848;2023-03-25T04:14:42;98279.97;;;21.22;38.62
47785;BME280;35233;55.686;37.848;2023-03-25T04:17:08;98281.94;;;21.20;38.23
47785;BME280;35233;55.686;37.848;2023-03-25T04:19:34;98284.06;;;21.27;38.35
47785;BME280;35233;55.686;37.848;2023-03-25T04:22:00;98281.50;;;21.25;38.14
47785;BME280;35233;55.686;37.848;2023-03-25T04:24:27;98280.69;;;21.24;38.32
47785;BME280;35233;55.686;37.848;2023-03-25T04:27:02;98265.28;;;21.27;38.25
47785;BME280;35233;55.686;37.848;2023-03-25T04:29:32;98260.88;;;21.25;38.66
47785;BME280;35233;55.686;37.848;2023-03-25T04:31:59;98252.13;;;21.23;38.66
47785;BME280;35233;55.686;37.848;2023-03-25T04:34:25;98237.28;;;21.19;38.31
47785;BME280;35233;55.686;37.848;2023-03-25T04:36:51;98214.41;;;21.06;38.61
47785;BME280;35233;55.686;37.848;2023-03-25T04:39:19;98253.53;;;21.28;38.64
47785;BME280;35233;55.686;37.848;2023-03-25T04:41:51;98249.00;;;21.28;38.63
47785;BME280;35233;55.686;37.848;2023-03-25T04:44:26;98221.16;;;21.19;38.58
47785;BME280;35233;55.686;37.848;2023-03-25T04:46:53;98225.66;;;21.29;38.29
47785;BME280;35233;55.686;37.848;2023-03-25T04:49:21;98206.59;;;21.22;38.16
47785;BME280;35233;55.686;37.848;2023-03-25T04:51:48;98206.31;;;21.25;38.49
47785;BME280;35233;55.686;37.848;2023-03-25T04:54:18;98221.13;;;21.29;38.40
47785;BME280;35233;55.686;37.848;2023-03-25T04:56:45;98202.25;;;21.21;38.60
47785;BME280;35233;55.686;37.848;2023-03-25T04:59:15;98202.06;;;21.22;38.43
47785;BME280;35233;55.686;37.848;2023-03-25T05:01:40;98199.81;;;21.28;38.64
47785;BME280;35233;55.686;37.848;2023-03-25T05:04:08;98191.75;;;21.28;38.43
47785;BME280;35233;55.686;37.848;2023-03-25T05:06:41;98189.03;;;21.37;38.14
47785;BME280;35233;55.686;37.848;2023-03-25T05:09:10;98195.13;;;21.39;38.34
47785;BME280;35233;55.686;37.848;2023-03-25T05:11:36;98187.06;;;21.39;38.24
47785;BME280;35233;55.686;37.848;2023-03-25T05:14:04;98179.41;;;21.35;38.35
47785;BME280;35233;55.686;37.848;2023-03-25T05:16:30;98191.03;;;21.35;38.38
47785;BME280;35233;55.686;37.848;2023-03-25T05:18:56;98192.44;;;21.39;38.00
47785;BME280;35233;55.686;37.848;2023-03-25T05:21:21;98197.81;;;21.39;38.03
47785;BME280;35233;55.686;37.848;2023-03-25T05:23:47;98192.00;;;21.44;38.02
47785;BME280;35233;55.686;37.848;2023-03-25T05:26:12;98187.38;;;21.36;38.35
47785;BME280;35233;55.686;37.848;2023-03-25T05:28:39;98179.56;;;21.33;38.39
47785;BME280;35233;55.686;37.848;2023-03-25T05:31:06;98198.53;;;21.41;38.36
47785;BME280;35233;55.686;37.848;2023-03-25T05:33:36;98185.78;;;21.34;38.40
47785;BME280;35233;55.686;37.848;2023-03-25T05:36:14;98193.72;;;21.35;38.67
47785;BME280;35233;55.686;37.848;2023-03-25T05:38:40;98205.03;;;21.39;38.74
47785;BME280;35233;55.686;37.848;2023-03-25T05:41:07;98205.72;;;21.41;38.18
47785;BME280;35233;55.686;37.848;2023-03-25T05:43:36;98207.56;;;21.40;38.15
47785;BME280;35233;55.686;37.848;2023-03-25T05:46:02;98198.94;;;21.37;38.47
47785;BME280;35233;55.686;37.848;2023-03-25T05:48:30;98190.16;;;21.35;38.54
47785;BME280;35233;55.686;37.848;2023-03-25T05:50:59;98205.53;;;21.52;37.97
47785;BME280;35233;55.686;37.848;2023-03-25T05:53:25;98181.25;;;21.44;38.08
47785;BME280;35233;55.686;37.848;2023-03-25T05:55:51;98191.25;;;21.52;38.35
47785;BME280;35233;55.686;37.848;2023-03-25T05:58:17;98188.56;;;21.52;38.06
47785;BME280;35233;55.686;37.848;2023-03-25T06:00:43;98183.94;;;21.44;38.47
47785;BME280;35233;55.686;37.848;2023-03-25T06:03:11;98173.75;;;21.47;38.67
47785;BME280;35233;55.686;37.848;2023-03-25T06:05:39;98159.91;;;21.42;38.55
47785;BME280;35233;55.686;37.848;2023-03-25T06:08:05;98161.00;;;21.50;38.75
47785;BME280;35233;55.686;37.848;2023-03-25T06:10:31;98160.47;;;21.91;38.24
47785;BME280;35233;55.686;37.848;2023-03-25T06:12:57;98165.31;;;21.33;38.86
47785;BME280;35233;55.686;37.848;2023-03-25T06:15:23;98180.88;;;21.19;39.08
47785;BME280;35233;55.686;37.848;2023-03-25T06:17:58;98172.88;;;21.10;39.68
47785;BME280;35233;55.686;37.848;2023-03-25T06:20:24;98176.53;;;21.09;39.57
47785;BME280;35233;55.686;37.848;2023-03-25T06:22:50;98177.41;;;21.09;39.27
47785;BME280;35233;55.686;37.848;2023-03-25T06:25:17;98164.81;;;21.10;39.32
47785;BME280;35233;55.686;37.848;2023-03-25T06:27:45;98172.88;;;21.10;39.34
47785;BME280;35233;55.686;37.848;2023-03-25T06:30:16;98152.78;;;21.14;39.56
47785;BME280;35233;55.686;37.848;2023-03-25T06:32:42;98166.44;;;21.20;39.28
47785;BME280;35233;55.686;37.848;2023-03-25T06:35:10;98159.09;;;21.22;39.34
47785;BME280;35233;55.686;37.848;2023-03-25T06:37:36;98159.53;;;21.28;39.22
47785;BME280;35233;55.686;37.848;2023-03-25T06:40:03;98160.25;;;21.20;39.60
47785;BME280;35233;55.686;37.848;2023-03-25T06:42:30;98134.28;;;21.11;39.50
47785;BME280;35233;55.686;37.848;2023-03-25T06:44:56;98130.78;;;21.00;39.49
47785;BME280;35233;55.686;37.848;2023-03-25T06:47:21;98144.59;;;21.06;39.75
47785;BME280;35233;55.686;37.848;2023-03-25T06:49:47;98131.38;;;20.94;39.76
47785;BME280;35233;55.686;37.848;2023-03-25T06:52:13;98149.72;;;20.99;39.81
47785;BME280;35233;55.686;37.848;2023-03-25T06:54:39;98147.31;;;20.96;39.77
47785;BME280;35233;55.686;37.848;2023-03-25T06:57:05;98151.31;;;20.92;40.26
47785;BME280;35233;55.686;37.848;2023-03-25T06:59:31;98133.66;;;20.79;40.08
47785;BME280;35233;55.686;37.848;2023-03-25T07:01:57;98149.91;;;20.78;40.25
47785;BME280;35233;55.686;37.848;2023-03-25T07:04:23;98133.28;;;20.74;39.98
47785;BME280;35233;55.686;37.848;2023-03-25T07:06:48;98128.75;;;20.75;40.51
47785;BME280;35233;55.686;37.848;2023-03-25T07:09:14;98134.09;;;20.65;40.21
47785;BME280;35233;55.686;37.848;2023-03-25T07:11:40;98145.13;;;20.72;40.52
47785;BME280;35233;55.686;37.848;2023-03-25T07:14:06;98140.06;;;20.59;40.75
47785;BME280;35233;55.686;37.848;2023-03-25T07:16:31;98138.94;;;20.62;40.67
47785;BME280;35233;55.686;37.848;2023-03-25T07:18:57;98147.13;;;20.60;40.78
47785;BME280;35233;55.686;37.848;2023-03-25T07:21:23;98146.25;;;20.50;40.91
47785;BME280;35233;55.686;37.848;2023-03-25T07:23:49;98139.78;;;20.52;40.85
47785;BME280;35233;55.686;37.848;2023-03-25T07:26:15;98135.53;;;20.50;41.00
47785;BME280;35233;55.686;37.848;2023-03-25T07:28:41;98144.28;;;20.52;41.03
47785;BME280;35233;55.686;37.848;2023-03-25T07:31:08;98137.38;;;20.40;40.94
47785;BME280;35233;55.686;37.848;2023-03-25T07:33:34;98134.69;;;20.40;40.87
47785;BME280;35233;55.686;37.848;2023-03-25T07:36:01;98132.41;;;20.45;41.20
47785;BME280;35233;55.686;37.848;2023-03-25T07:38:27;98140.75;;;20.42;41.35
47785;BME280;35233;55.686;37.848;2023-03-25T07:40:52;98139.91;;;20.41;41.03
47785;BME280;35233;55.686;37.848;2023-03-25T07:43:17;98132.41;;;20.45;41.27
47785;BME280;35233;55.686;37.848;2023-03-25T07:45:43;98127.22;;;20.33;41.26
47785;BME280;35233;55.686;37.848;2023-03-25T07:48:08;98124.69;;;20.32;41.09
47785;BME280;35233;55.686;37.848;2023-03-25T07:50:39;98134.69;;;20.40;41.28
47785;BME280;35233;55.686;37.848;2023-03-25T07:53:05;98133.84;;;21.53;40.87
47785;BME280;35233;55.686;37.848;2023-03-25T07:55:31;98137.03;;;22.02;40.47
47785;BME280;35233;55.686;37.848;2023-03-25T07:57:56;98118.47;;;22.08;40.46
47785;BME280;35233;55.686;37.848;2023-03-25T08:00:28;98124.31;;;22.22;40.29
47785;BME280;35233;55.686;37.848;2023-03-25T08:02:54;98121.94;;;22.19;40.09
47785;BME280;35233;55.686;37.848;2023-03-25T08:05:20;98108.50;;;22.19;40.48
47785;BME280;35233;55.686;37.848;2023-03-25T08:07:47;98124.16;;;22.41;39.75
47785;BME280;35233;55.686;37.848;2023-03-25T08:10:13;98132.75;;;22.45;39.52
47785;BME280;35233;55.686;37.848;2023-03-25T08:12:40;98133.59;;;22.45;39.72
47785;BME280;35233;55.686;37.848;2023-03-25T08:15:06;98132.31;;;22.49;39.62
47785;BME280;35233;55.686;37.848;2023-03-25T08:17:32;98109.38;;;22.45;39.52
47785;BME280;35233;55.686;37.848;2023-03-25T08:19:58;98130.00;;;22.54;39.24
47785;BME280;35233;55.686;37.848;2023-03-25T08:22:27;98126.75;;;22.51;39.27
47785;BME280;35233;55.686;37.848;2023-03-25T08:24:53;98144.75;;;22.50;39.00
47785;BME280;35233;55.686;37.848;2023-03-25T08:27:18;98153.84;;;22.49;39.52
47785;BME280;35233;55.686;37.848;2023-03-25T08:29:44;98147.63;;;22.49;39.03
47785;BME280;35233;55.686;37.848;2023-03-25T08:32:24;98144.84;;;22.41;39.17
47785;BME280;35233;55.686;37.848;2023-03-25T08:34:51;98164.59;;;22.49;39.12
47785;BME280;35233;55.686;37.848;2023-03-25T08:37:17;98166.75;;;22.46;38.92
47785;BME280;35233;55.686;37.848;2023-03-25T08:39:43;98172.69;;;22.49;38.55
47785;BME280;35233;55.686;37.848;2023-03-25T08:42:12;98162.59;;;22.51;38.79
47785;BME280;35233;55.686;37.848;2023-03-25T08:44:38;98173.91;;;22.55;38.73
47785;BME280;35233;55.686;37.848;2023-03-25T08:47:04;98147.81;;;22.55;39.21
47785;BME280;35233;55.686;37.848;2023-03-25T08:49:30;98157.44;;;22.58;39.22
47785;BME280;35233;55.686;37.848;2023-03-25T08:51:56;98162.66;;;22.59;39.34
47785;BME280;35233;55.686;37.848;2023-03-25T08:54:25;98156.50;;;22.67;39.95
47785;BME280;35233;55.686;37.848;2023-03-25T08:56:52;98163.09;;;22.73;40.18
47785;BME280;35233;55.686;37.848;2023-03-25T08:59:17;98152.28;;;22.65;40.27
47785;BME280;35233;55.686;37.848;2023-03-25T09:01:43;98174.41;;;22.76;40.83
47785;BME280;35233;55.686;37.848;2023-03-25T09:04:10;98159.56;;;22.72;41.07
47785;BME280;35233;55.686;37.848;2023-03-25T09:06:36;98176.25;;;22.76;40.88
47785;BME280;35233;55.686;37.848;2023-03-25T09:09:03;98179.47;;;22.79;40.71
47785;BME280;35233;55.686;37.848;2023-03-25T09:11:30;98175.94;;;22.79;40.51
47785;BME280;35233;55.686;37.848;2023-03-25T09:13:56;98168.19;;;22.76;40.66
47785;BME280;35233;55.686;37.848;2023-03-25T09:16:23;98166.50;;;22.75;40.69
47785;BME280;35233;55.686;37.848;2023-03-25T09:18:49;98144.91;;;22.67;40.82
47785;BME280;35233;55.686;37.848;2023-03-25T09:21:14;98157.22;;;22.77;40.81
47785;BME280;35233;55.686;37.848;2023-03-25T09:23:40;98156.47;;;22.85;40.42
47785;BME280;35233;55.686;37.848;2023-03-25T09:26:06;98155.31;;;22.88;40.29
47785;BME280;35233;55.686;37.848;2023-03-25T09:28:31;98131.06;;;22.88;40.00
47785;BME280;35233;55.686;37.848;2023-03-25T09:30:57;98154.06;;;23.00;39.86
47785;BME280;35233;55.686;37.848;2023-03-25T09:33:22;98150.13;;;22.94;39.81
47785;BME280;35233;55.686;37.848;2023-03-25T09:35:48;98162.47;;;22.97;39.88
47785;BME280;35233;55.686;37.848;2023-03-25T09:38:14;98167.16;;;22.95;39.67
47785;BME280;35233;55.686;37.848;2023-03-25T09:40:41;98159.53;;;22.90;39.36
47785;BME280;35233;55.686;37.848;2023-03-25T09:45:58;98166.16;;;22.96;39.12
47785;BME280;35233;55.686;37.848;2023-03-25T09:48:36;98172.38;;;22.96;39.23
47785;BME280;35233;55.686;37.848;2023-03-25T09:51:25;98161.91;;;22.93;39.13
47785;BME280;35233;55.686;37.848;2023-03-25T09:54:01;98167.06;;;23.04;38.91
47785;BME280;35233;55.686;37.848;2023-03-25T09:56:33;98171.81;;;23.11;38.84
47785;BME280;35233;55.686;37.848;2023-03-25T09:59:07;98170.13;;;23.10;38.78
47785;BME280;35233;55.686;37.848;2023-03-25T10:01:50;98188.88;;;23.19;38.56
47785;BME280;35233;55.686;37.848;2023-03-25T10:10:33;98176.34;;;23.44;37.92
47785;BME280;35233;55.686;37.848;2023-03-25T10:18:47;98177.66;;;23.32;37.75
47785;BME280;35233;55.686;37.848;2023-03-25T10:26:32;98175.03;;;23.14;37.69
47785;BME280;35233;55.686;37.848;2023-03-25T10:29:09;98172.78;;;23.36;37.77
47785;BME280;35233;55.686;37.848;2023-03-25T10:31:39;98189.81;;;23.36;37.64
47785;BME280;35233;55.686;37.848;2023-03-25T10:34:13;98198.41;;;23.40;37.64
47785;BME280;35233;55.686;37.848;2023-03-25T10:36:53;98193.81;;;23.32;37.56
47785;BME280;35233;55.686;37.848;2023-03-25T10:39:23;98188.06;;;23.27;37.66
47785;BME280;35233;55.686;37.848;2023-03-25T10:41:53;98193.28;;;23.28;37.49
47785;BME280;35233;55.686;37.848;2023-03-25T10:44:20;98184.00;;;23.23;37.51
47785;BME280;35233;55.686;37.848;2023-03-25T10:46:51;98195.28;;;23.26;37.89
47785;BME280;35233;55.686;37.848;2023-03-25T10:49:24;98188.56;;;23.22;37.64
47785;BME280;35233;55.686;37.848;2023-03-25T10:51:51;98181.94;;;23.17;37.84
47785;BME280;35233;55.686;37.848;2023-03-25T10:54:20;98196.47;;;23.24;37.63
47785;BME280;35233;55.686;37.848;2023-03-25T10:56:50;98189.25;;;23.24;37.51
47785;BME280;35233;55.686;37.848;2023-03-25T10:59:25;98199.16;;;23.24;37.63
47785;BME280;35233;55.686;37.848;2023-03-25T11:01:54;98176.34;;;23.10;37.39
47785;BME280;35233;55.686;37.848;2023-03-25T11:04:30;98184.31;;;23.20;37.78
47785;BME280;35233;55.686;37.848;2023-03-25T11:06:58;98196.13;;;23.27;37.43
47785;BME280;35233;55.686;37.848;2023-03-25T11:09:25;98194.34;;;23.36;37.42
47785;BME280;35233;55.686;37.848;2023-03-25T11:11:53;98191.16;;;23.40;37.22
47785;BME280;35233;55.686;37.848;2023-03-25T11:14:26;98182.94;;;23.42;37.11
47785;BME280;35233;55.686;37.848;2023-03-25T11:19:30;98161.47;;;23.32;37.09
47785;BME280;35233;55.686;37.848;2023-03-25T11:22:00;98182.25;;;23.40;37.04
47785;BME280;35233;55.686;37.848;2023-03-25T11:24:31;98177.66;;;23.32;37.08
47785;BME280;35233;55.686;37.848;2023-03-25T11:26:58;98183.56;;;23.36;37.13
47785;BME280;35233;55.686;37.848;2023-03-25T11:29:26;98186.88;;;23.30;37.05
47785;BME280;35233;55.686;37.848;2023-03-25T11:32:15;98195.53;;;23.41;36.99
47785;BME280;35233;55.686;37.848;2023-03-25T11:34:46;98189.16;;;23.42;37.01
47785;BME280;35233;55.686;37.848;2023-03-25T11:37:19;98175.31;;;23.37;37.04
47785;BME280;35233;55.686;37.848;2023-03-25T11:39:51;98182.63;;;23.45;36.81
47785;BME280;35233;55.686;37.848;2023-03-25T11:44:50;98171.28;;;23.41;36.86
47785;BME280;35233;55.686;37.848;2023-03-25T11:47:21;98175.84;;;23.41;37.18
47785;BME280;35233;55.686;37.848;2023-03-25T11:49:51;98179.38;;;23.41;37.23
47785;BME280;35233;55.686;37.848;2023-03-25T11:52:20;98184.75;;;23.41;37.19
47785;BME280;35233;55.686;37.848;2023-03-25T11:54:48;98181.22;;;23.41;37.27
47785;BME280;35233;55.686;37.848;2023-03-25T11:57:21;98151.88;;;23.30;37.53
47785;BME280;35233;55.686;37.848;2023-03-25T11:59:49;98179.69;;;23.38;37.70
47785;BME280;35233;55.686;37.848;2023-03-25T12:02:25;98194.22;;;23.45;37.69
47785;BME280;35233;55.686;37.848;2023-03-25T12:04:56;98188.00;;;23.45;37.52
47785;BME280;35233;55.686;37.848;2023-03-25T12:07:21;98200.09;;;23.41;37.71
47785;BME280;35233;55.686;37.848;2023-03-25T12:10:04;98194.03;;;23.39;37.39
47785;BME280;35233;55.686;37.848;2023-03-25T12:18:19;98197.91;;;23.36;37.51
47785;BME280;35233;55.686;37.848;2023-03-25T12:24:05;98203.28;;;23.36;37.35
47785;BME280;35233;55.686;37.848;2023-03-25T12:26:35;98212.22;;;23.37;37.38
47785;BME280;35233;55.686;37.848;2023-03-25T12:29:29;98218.28;;;23.39;37.38
47785;BME280;35233;55.686;37.848;2023-03-25T12:45:45;98190.00;;;23.43;37.45
47785;BME280;35233;55.686;37.848;2023-03-25T12:48:33;98197.06;;;23.44;37.64
47785;BME280;35233;55.686;37.848;2023-03-25T12:56:32;98194.38;;;23.44;37.42
47785;BME280;35233;55.686;37.848;2023-03-25T12:59:04;98203.16;;;23.46;37.60
47785;BME280;35233;55.686;37.848;2023-03-25T13:07:06;98207.72;;;23.45;38.53
47785;BME280;35233;55.686;37.848;2023-03-25T13:12:33;98201.16;;;23.48;38.77
47785;BME280;35233;55.686;37.848;2023-03-25T13:15:27;98193.59;;;23.52;38.75
47785;BME280;35233;55.686;37.848;2023-03-25T13:18:15;98194.44;;;23.52;39.08
47785;BME280;35233;55.686;37.848;2023-03-25T13:20:46;98192.56;;;23.53;39.15
47785;BME280;35233;55.686;37.848;2023-03-25T13:23:18;98189.22;;;23.50;39.29
47785;BME280;35233;55.686;37.848;2023-03-25T13:26:05;98179.59;;;23.48;39.33
47785;BME280;35233;55.686;37.848;2023-03-25T13:28:58;98197.50;;;23.57;39.39
47785;BME280;35233;55.686;37.848;2023-03-25T13:31:29;98184.66;;;23.51;39.36
47785;BME280;35233;55.686;37.848;2023-03-25T13:36:30;98196.97;;;23.54;39.44
47785;BME280;35233;55.686;37.848;2023-03-25T13:39:16;98195.13;;;23.54;39.43
47785;BME280;35233;55.686;37.848;2023-03-25T13:42:25;98200.00;;;23.59;39.34
47785;BME280;35233;55.686;37.848;2023-03-25T13:44:54;98176.25;;;23.54;39.34
47785;BME280;35233;55.686;37.848;2023-03-25T13:47:44;98195.50;;;23.59;39.06
47785;BME280;35233;55.686;37.848;2023-03-25T13:50:23;98183.97;;;23.49;38.94
47785;BME280;35233;55.686;37.848;2023-03-25T13:53:04;98195.81;;;23.56;39.04
47785;BME280;35233;55.686;37.848;2023-03-25T13:55:38;98203.22;;;23.54;38.89
47785;BME280;35233;55.686;37.848;2023-03-25T14:10:21;98204.75;;;23.65;39.00
47785;BME280;35233;55.686;37.848;2023-03-25T14:13:36;98184.53;;;23.61;38.89
47785;BME280;35233;55.686;37.848;2023-03-25T14:15:39;98199.59;;;23.71;38.93
47785;BME280;35233;55.686;37.848;2023-03-25T14:18:15;98208.69;;;23.70;38.77
47785;BME280;35233;55.686;37.848;2023-03-25T14:20:42;98191.59;;;23.62;38.70
47785;BME280;35233;55.686;37.848;2023-03-25T14:23:14;98210.41;;;23.71;38.67
47785;BME280;35233;55.686;37.848;2023-03-25T14:25:46;98203.28;;;23.70;38.76
47785;BME280;35233;55.686;37.848;2023-03-25T14:28:35;98208.13;;;23.67;38.51
47785;BME280;35233;55.686;37.848;2023-03-25T14:31:15;98209.47;;;23.63;38.75
47785;BME280;35233;55.686;37.848;2023-03-25T14:39:12;98231.38;;;22.72;40.18
47785;BME280;35233;55.686;37.848;2023-03-25T14:44:42;98210.16;;;22.15;41.10
47785;BME280;35233;55.686;37.848;2023-03-25T14:50:00;98210.81;;;21.99;41.89
47785;BME280;35233;55.686;37.848;2023-03-25T14:52:47;98202.56;;;21.83;42.16
47785;BME280;35233;55.686;37.848;2023-03-25T14:55:17;98208.38;;;21.78;42.31
47785;BME280;35233;55.686;37.848;2023-03-25T14:57:44;98214.06;;;21.75;41.99
47785;BME280;35233;55.686;37.848;2023-03-25T15:00:24;98227.38;;;21.67;41.94
47785;BME280;35233;55.686;37.848;2023-03-25T15:03:14;98224.63;;;21.59;42.65
47785;BME280;35233;55.686;37.848;2023-03-25T15:05:42;98215.72;;;21.48;42.72
47785;BME280;35233;55.686;37.848;2023-03-25T15:10:38;98238.25;;;21.38;43.10
47785;BME280;35233;55.686;37.848;2023-03-25T15:13:48;98230.19;;;21.28;42.96
47785;BME280;35233;55.686;37.848;2023-03-25T15:16:36;98242.22;;;21.24;43.41